sensor_id;sensor_type;location;lat;lon;timestamp;pressure;altitude;pressure_sealevel;temperature;humidity
49979;BME280;35869;50.990;6.962;2022-11-20T00:02:42;100942.31;;;3.73;99.38
49979;BME280;35869;50.990;6.962;2022-11-20T00:07:43;100951.75;;;3.72;99.93
49979;BME280;35869;50.990;6.962;2022-11-20T00:12:43;100942.34;;;3.71;100.00
49979;BME280;35869;50.990;6.962;2022-11-20T00:17:43;100942.53;;;3.56;99.48
49979;BME280;35869;50.990;6.962;2022-11-20T00:22:43;100945.00;;;3.65;98.70
49979;BME280;35869;50.990;6.962;2022-11-20T00:27:43;100945.91;;;3.60;100.00
49979;BME280;35869;50.990;6.962;2022-11-20T00:32:44;100945.88;;;3.63;100.00
49979;BME280;35869;50.990;6.962;2022-11-20T00:37:44;100943.16;;;3.77;100.00
49979;BME280;35869;50.990;6.962;2022-11-20T00:42:44;100951.72;;;3.77;100.00
49979;BME280;35869;50.990;6.962;2022-11-20T00:47:44;100933.75;;;3.72;100.00
49979;BME280;35869;50.990;6.962;2022-11-20T00:52:45;100932.94;;;3.70;100.00
49979;BME280;35869;50.990;6.962;2022-11-20T00:57:45;100933.09;;;3.57;99.91
49979;BME280;35869;50.990;6.962;2022-11-20T01:02:45;100929.66;;;3.59;99.48
49979;BME280;35869;50.990;6.962;2022-11-20T01:07:45;100934.56;;;3.78;100.00
49979;BME280;35869;50.990;6.962;2022-11-20T01:12:45;100941.53;;;3.69;100.00
49979;BME280;35869;50.990;6.962;2022-11-20T01:17:46;100940.56;;;3.75;100.00
49979;BME280;35869;50.990;6.962;2022-11-20T01:22:46;100925.97;;;3.79;100.00
49979;BME280;35869;50.990;6.962;2022-11-20T01:27:46;100927.72;;;3.77;100.00
49979;BME280;35869;50.990;6.962;2022-11-20T01:32:46;100933.69;;;3.79;100.00
49979;BME280;35869;50.990;6.962;2022-11-20T01:37:47;100924.28;;;3.78;100.00
49979;BME280;35869;50.990;6.962;2022-11-20T01:42:53;100929.44;;;3.76;100.00
49979;BME280;35869;50.990;6.962;2022-11-20T01:47:58;100928.53;;;3.79;100.00
49979;BME280;35869;50.990;6.962;2022-11-20T01:53:02;100926.03;;;3.76;100.00
49979;BME280;35869;50.990;6.962;2022-11-20T01:58:05;100920.84;;;3.79;100.00
49979;BME280;35869;50.990;6.962;2022-11-20T02:03:09;100901.22;;;3.71;100.00
49979;BME280;35869;50.990;6.962;2022-11-20T02:08:09;100901.16;;;3.74;100.00
49979;BME280;35869;50.990;6.962;2022-11-20T02:13:10;100898.59;;;3.74;100.00
49979;BME280;35869;50.990;6.962;2022-11-20T02:18:11;100886.59;;;3.77;100.00
49979;BME280;35869;50.990;6.962;2022-11-20T02:23:26;100886.69;;;3.67;100.00
49979;BME280;35869;50.990;6.962;2022-11-20T02:28:29;100898.59;;;3.74;100.00
49979;BME280;35869;50.990;6.962;2022-11-20T02:33:29;100900.50;;;3.60;100.00
49979;BME280;35869;50.990;6.962;2022-11-20T02:38:29;100893.69;;;3.58;97.45
49979;BME280;35869;50.990;6.962;2022-11-20T02:43:29;100888.56;;;3.56;99.04
49979;BME280;35869;50.990;6.962;2022-11-20T02:48:30;100879.81;;;3.71;100.00
49979;BME280;35869;50.990;6.962;2022-11-20T02:53:30;100875.56;;;3.67;100.00
49979;BME280;35869;50.990;6.962;2022-11-20T02:58:30;100864.41;;;3.69;100.00
49979;BME280;35869;50.990;6.962;2022-11-20T03:03:30;100866.97;;;3.71;100.00
49979;BME280;35869;50.990;6.962;2022-11-20T03:08:31;100871.19;;;3.73;100.00
49979;BME280;35869;50.990;6.962;2022-11-20T03:13:31;100863.47;;;3.73;100.00
49979;BME280;35869;50.990;6.962;2022-11-20T03:18:31;100858.38;;;3.72;100.00
49979;BME280;35869;50.990;6.962;2022-11-20T03:23:33;100865.22;;;3.73;100.00
49979;BME280;35869;50.990;6.962;2022-11-20T03:28:33;100861.84;;;3.68;100.00
49979;BME280;35869;50.990;6.962;2022-11-20T03:33:34;100869.66;;;3.60;100.00
49979;BME280;35869;50.990;6.962;2022-11-20T03:38:34;100868.88;;;3.55;100.00
49979;BME280;35869;50.990;6.962;2022-11-20T03:43:35;100867.84;;;3.68;100.00
49979;BME280;35869;50.990;6.962;2022-11-20T03:48:35;100859.28;;;3.69;100.00
49979;BME280;35869;50.990;6.962;2022-11-20T03:53:36;100862.69;;;3.68;100.00
49979;BME280;35869;50.990;6.962;2022-11-20T03:58:38;100862.59;;;3.74;100.00
49979;BME280;35869;50.990;6.962;2022-11-20T04:03:39;100856.72;;;3.69;100.00
49979;BME280;35869;50.990;6.962;2022-11-20T04:08:40;100858.41;;;3.70;100.00
49979;BME280;35869;50.990;6.962;2022-11-20T04:13:42;100849.00;;;3.69;100.00
49979;BME280;35869;50.990;6.962;2022-11-20T04:18:43;100840.34;;;3.73;100.00
49979;BME280;35869;50.990;6.962;2022-11-20T04:23:43;100837.84;;;3.70;100.00
49979;BME280;35869;50.990;6.962;2022-11-20T04:28:44;100831.00;;;3.69;100.00
49979;BME280;35869;50.990;6.962;2022-11-20T04:33:44;100833.63;;;3.65;100.00
49979;BME280;35869;50.990;6.962;2022-11-20T04:38:45;100847.28;;;3.68;100.00
49979;BME280;35869;50.990;6.962;2022-11-20T04:43:46;100847.38;;;3.61;100.00
49979;BME280;35869;50.990;6.962;2022-11-20T04:48:47;100858.56;;;3.58;100.00
49979;BME280;35869;50.990;6.962;2022-11-20T04:53:47;100855.91;;;3.64;100.00
49979;BME280;35869;50.990;6.962;2022-11-20T04:58:48;100859.41;;;3.59;100.00
49979;BME280;35869;50.990;6.962;2022-11-20T05:03:48;100863.59;;;3.66;100.00
49979;BME280;35869;50.990;6.962;2022-11-20T05:08:49;100868.00;;;3.56;100.00
49979;BME280;35869;50.990;6.962;2022-11-20T05:13:50;100868.91;;;3.54;100.00
49979;BME280;35869;50.990;6.962;2022-11-20T05:18:52;100860.34;;;3.53;100.00
49979;BME280;35869;50.990;6.962;2022-11-20T05:23:53;100872.28;;;3.56;100.00
49979;BME280;35869;50.990;6.962;2022-11-20T05:28:53;100857.69;;;3.59;100.00
49979;BME280;35869;50.990;6.962;2022-11-20T05:33:54;100849.94;;;3.62;100.00
49979;BME280;35869;50.990;6.962;2022-11-20T05:38:55;100847.34;;;3.65;100.00
49979;BME280;35869;50.990;6.962;2022-11-20T05:43:56;100864.53;;;3.60;100.00
49979;BME280;35869;50.990;6.962;2022-11-20T05:48:57;100862.78;;;3.62;100.00
49979;BME280;35869;50.990;6.962;2022-11-20T05:53:57;100855.16;;;3.58;100.00
49979;BME280;35869;50.990;6.962;2022-11-20T05:58:58;100853.38;;;3.61;100.00
49979;BME280;35869;50.990;6.962;2022-11-20T06:03:58;100854.19;;;3.63;100.00
49979;BME280;35869;50.990;6.962;2022-11-20T06:08:58;100856.78;;;3.62;100.00
49979;BME280;35869;50.990;6.962;2022-11-20T06:13:58;100855.06;;;3.64;100.00
49979;BME280;35869;50.990;6.962;2022-11-20T06:18:58;100854.13;;;3.68;100.00
49979;BME280;35869;50.990;6.962;2022-11-20T06:23:59;100843.81;;;3.71;100.00
49979;BME280;35869;50.990;6.962;2022-11-20T06:28:59;100846.38;;;3.72;100.00
49979;BME280;35869;50.990;6.962;2022-11-20T06:33:59;100832.69;;;3.69;100.00
49979;BME280;35869;50.990;6.962;2022-11-20T06:39:00;100853.25;;;3.69;100.00
49979;BME280;35869;50.990;6.962;2022-11-20T06:44:00;100858.50;;;3.64;100.00
49979;BME280;35869;50.990;6.962;2022-11-20T06:49:00;100849.13;;;3.59;100.00
49979;BME280;35869;50.990;6.962;2022-11-20T06:54:01;100860.25;;;3.61;100.00
49979;BME280;35869;50.990;6.962;2022-11-20T06:59:04;100864.56;;;3.57;100.00
49979;BME280;35869;50.990;6.962;2022-11-20T07:04:05;100868.84;;;3.58;100.00
49979;BME280;35869;50.990;6.962;2022-11-20T07:09:05;100869.69;;;3.57;100.00
49979;BME280;35869;50.990;6.962;2022-11-20T07:14:05;100882.63;;;3.51;100.00
49979;BME280;35869;50.990;6.962;2022-11-20T07:19:05;100882.59;;;3.54;100.00
49979;BME280;35869;50.990;6.962;2022-11-20T07:24:06;100885.16;;;3.56;100.00
49979;BME280;35869;50.990;6.962;2022-11-20T07:29:06;100889.41;;;3.58;100.00
49979;BME280;35869;50.990;6.962;2022-11-20T07:34:06;100896.28;;;3.58;100.00
49979;BME280;35869;50.990;6.962;2022-11-20T07:39:06;100885.13;;;3.57;100.00
49979;BME280;35869;50.990;6.962;2022-11-20T07:44:07;100884.25;;;3.60;100.00
49979;BME280;35869;50.990;6.962;2022-11-20T07:49:07;100886.84;;;3.58;100.00
49979;BME280;35869;50.990;6.962;2022-11-20T07:54:07;100883.34;;;3.64;100.00
49979;BME280;35869;50.990;6.962;2022-11-20T07:59:07;100867.91;;;3.64;100.00
49979;BME280;35869;50.990;6.962;2022-11-20T08:04:08;100883.31;;;3.65;100.00
49979;BME280;35869;50.990;6.962;2022-11-20T08:09:09;100879.75;;;3.76;100.00
49979;BME280;35869;50.990;6.962;2022-11-20T08:14:09;100871.28;;;3.67;100.00
49979;BME280;35869;50.990;6.962;2022-11-20T08:19:10;100865.34;;;3.64;100.00
49979;BME280;35869;50.990;6.962;2022-11-20T08:24:10;100867.78;;;3.73;100.00
49979;BME280;35869;50.990;6.962;2022-11-20T08:29:11;100874.72;;;3.66;100.00
49979;BME280;35869;50.990;6.962;2022-11-20T08:34:11;100878.25;;;3.59;100.00
49979;BME280;35869;50.990;6.962;2022-11-20T08:39:12;100884.84;;;3.79;100.00
49979;BME280;35869;50.990;6.962;2022-11-20T08:44:12;100872.81;;;3.81;100.00
49979;BME280;35869;50.990;6.962;2022-11-20T08:49:13;100885.72;;;3.78;100.00
49979;BME280;35869;50.990;6.962;2022-11-20T08:54:14;100877.94;;;3.81;100.00
49979;BME280;35869;50.990;6.962;2022-11-20T08:59:14;100881.41;;;3.78;100.00
49979;BME280;35869;50.990;6.962;2022-11-20T09:04:14;100877.00;;;3.86;100.00
49979;BME280;35869;50.990;6.962;2022-11-20T09:09:14;100880.38;;;3.93;100.00
49979;BME280;35869;50.990;6.962;2022-11-20T09:14:15;100882.00;;;3.97;100.00
49979;BME280;35869;50.990;6.962;2022-11-20T09:19:15;100871.69;;;3.98;100.00
49979;BME280;35869;50.990;6.962;2022-11-20T09:24:15;100868.22;;;4.03;100.00
49979;BME280;35869;50.990;6.962;2022-11-20T09:29:15;100862.94;;;4.10;100.00
49979;BME280;35869;50.990;6.962;2022-11-20T09:34:16;100853.38;;;4.20;100.00
49979;BME280;35869;50.990;6.962;2022-11-20T09:39:16;100839.56;;;4.25;100.00
49979;BME280;35869;50.990;6.962;2022-11-20T09:54:54;100859.63;;;4.56;100.00
49979;BME280;35869;50.990;6.962;2022-11-20T09:59:57;100840.78;;;4.54;100.00
49979;BME280;35869;50.990;6.962;2022-11-20T10:05:15;100846.63;;;4.62;100.00
49979;BME280;35869;50.990;6.962;2022-11-20T10:10:41;100852.53;;;4.70;100.00
49979;BME280;35869;50.990;6.962;2022-11-20T10:21:29;100844.50;;;4.87;100.00
49979;BME280;35869;50.990;6.962;2022-11-20T10:32:02;100824.72;;;4.88;100.00
49979;BME280;35869;50.990;6.962;2022-11-20T10:37:16;100818.53;;;4.96;100.00
49979;BME280;35869;50.990;6.962;2022-11-20T10:42:27;100804.72;;;5.00;100.00
49979;BME280;35869;50.990;6.962;2022-11-20T10:47:30;100790.94;;;5.03;100.00
49979;BME280;35869;50.990;6.962;2022-11-20T11:03:20;100770.81;;;5.20;100.00
49979;BME280;35869;50.990;6.962;2022-11-20T11:08:33;100763.81;;;5.27;100.00
49979;BME280;35869;50.990;6.962;2022-11-20T11:13:34;100754.34;;;5.27;100.00
49979;BME280;35869;50.990;6.962;2022-11-20T11:18:35;100749.09;;;5.32;100.00
49979;BME280;35869;50.990;6.962;2022-11-20T11:23:42;100738.69;;;5.37;100.00
49979;BME280;35869;50.990;6.962;2022-11-20T11:29:34;100733.47;;;5.40;100.00
49979;BME280;35869;50.990;6.962;2022-11-20T11:34:17;100733.50;;;5.38;100.00
49979;BME280;35869;50.990;6.962;2022-11-20T11:39:19;100725.66;;;5.43;100.00
49979;BME280;35869;50.990;6.962;2022-11-20T11:44:28;100704.16;;;5.44;100.00
49979;BME280;35869;50.990;6.962;2022-11-20T11:49:30;100698.84;;;5.50;100.00
49979;BME280;35869;50.990;6.962;2022-11-20T11:54:42;100698.84;;;5.50;100.00
49979;BME280;35869;50.990;6.962;2022-11-20T12:04:59;100678.91;;;5.56;100.00
49979;BME280;35869;50.990;6.962;2022-11-20T12:10:02;100664.31;;;5.57;100.00
49979;BME280;35869;50.990;6.962;2022-11-20T12:15:04;100665.09;;;5.60;100.00
49979;BME280;35869;50.990;6.962;2022-11-20T12:20:12;100656.44;;;5.63;100.00
49979;BME280;35869;50.990;6.962;2022-11-20T12:25:23;100648.66;;;5.65;99.81
49979;BME280;35869;50.990;6.962;2022-11-20T12:30:24;100649.50;;;5.65;96.96
49979;BME280;35869;50.990;6.962;2022-11-20T12:46:46;100632.22;;;5.69;100.00
49979;BME280;35869;50.990;6.962;2022-11-20T12:56:50;100617.50;;;5.72;99.14
49979;BME280;35869;50.990;6.962;2022-11-20T13:02:01;100604.47;;;5.78;98.66
49979;BME280;35869;50.990;6.962;2022-11-20T13:07:08;100592.28;;;5.83;98.19
49979;BME280;35869;50.990;6.962;2022-11-20T13:17:58;100573.88;;;5.97;97.45
49979;BME280;35869;50.990;6.962;2022-11-20T13:22:59;100561.72;;;6.02;98.32
49979;BME280;35869;50.990;6.962;2022-11-20T13:28:03;100548.88;;;6.01;99.94
49979;BME280;35869;50.990;6.962;2022-11-20T13:33:07;100547.06;;;6.03;98.94
49979;BME280;35869;50.990;6.962;2022-11-20T13:38:09;100540.69;;;6.16;97.07
49979;BME280;35869;50.990;6.962;2022-11-20T13:43:35;100532.13;;;6.14;100.00
49979;BME280;35869;50.990;6.962;2022-11-20T13:48:42;100520.72;;;6.21;98.48
49979;BME280;35869;50.990;6.962;2022-11-20T14:04:38;100489.78;;;6.21;100.00
49979;BME280;35869;50.990;6.962;2022-11-20T14:09:55;100480.81;;;6.33;99.28
49979;BME280;35869;50.990;6.962;2022-11-20T14:14:56;100470.91;;;6.19;100.00
49979;BME280;35869;50.990;6.962;2022-11-20T14:20:00;100467.25;;;6.26;100.00
49979;BME280;35869;50.990;6.962;2022-11-20T14:30:06;100444.84;;;6.28;100.00
49979;BME280;35869;50.990;6.962;2022-11-20T14:35:25;100432.91;;;6.24;100.00
49979;BME280;35869;50.990;6.962;2022-11-20T14:45:28;100419.13;;;6.25;100.00
49979;BME280;35869;50.990;6.962;2022-11-20T14:50:29;100418.31;;;6.23;100.00
49979;BME280;35869;50.990;6.962;2022-11-20T14:55:37;100404.41;;;6.27;100.00
49979;BME280;35869;50.990;6.962;2022-11-20T15:00:38;100400.06;;;6.29;100.00
49979;BME280;35869;50.990;6.962;2022-11-20T15:05:47;100395.75;;;6.30;100.00
49979;BME280;35869;50.990;6.962;2022-11-20T15:10:49;100391.50;;;6.27;99.55
49979;BME280;35869;50.990;6.962;2022-11-20T15:15:52;100380.25;;;6.30;100.00
49979;BME280;35869;50.990;6.962;2022-11-20T15:20:55;100381.19;;;6.27;100.00
49979;BME280;35869;50.990;6.962;2022-11-20T15:25:56;100386.47;;;6.24;100.00
49979;BME280;35869;50.990;6.962;2022-11-20T15:30:56;100376.16;;;6.24;100.00
49979;BME280;35869;50.990;6.962;2022-11-20T15:35:57;100370.03;;;6.27;100.00
49979;BME280;35869;50.990;6.962;2022-11-20T15:40:57;100358.97;;;6.23;100.00
49979;BME280;35869;50.990;6.962;2022-11-20T15:46:17;100347.75;;;6.24;100.00
49979;BME280;35869;50.990;6.962;2022-11-20T15:56:28;100331.50;;;6.22;100.00
49979;BME280;35869;50.990;6.962;2022-11-20T16:01:29;100330.59;;;6.23;100.00
49979;BME280;35869;50.990;6.962;2022-11-20T16:06:29;100315.19;;;6.20;100.00
49979;BME280;35869;50.990;6.962;2022-11-20T16:11:29;100298.81;;;6.21;100.00
49979;BME280;35869;50.990;6.962;2022-11-20T16:16:30;100296.41;;;6.17;100.00
49979;BME280;35869;50.990;6.962;2022-11-20T16:21:32;100291.28;;;6.15;100.00
49979;BME280;35869;50.990;6.962;2022-11-20T16:26:33;100283.66;;;6.12;100.00
49979;BME280;35869;50.990;6.962;2022-11-20T16:31:33;100286.81;;;6.20;100.00
49979;BME280;35869;50.990;6.962;2022-11-20T16:36:34;100280.03;;;6.18;100.00
49979;BME280;35869;50.990;6.962;2022-11-20T16:41:34;100271.44;;;6.17;100.00
49979;BME280;35869;50.990;6.962;2022-11-20T16:46:34;100268.72;;;6.22;100.00
49979;BME280;35869;50.990;6.962;2022-11-20T16:51:35;100264.47;;;6.19;100.00
49979;BME280;35869;50.990;6.962;2022-11-20T16:56:36;100249.78;;;6.21;100.00
49979;BME280;35869;50.990;6.962;2022-11-20T17:01:36;100242.03;;;6.21;100.00
49979;BME280;35869;50.990;6.962;2022-11-20T17:06:38;100232.59;;;6.22;100.00
49979;BME280;35869;50.990;6.962;2022-11-20T17:11:40;100223.06;;;6.24;100.00
49979;BME280;35869;50.990;6.962;2022-11-20T17:16:40;100209.31;;;6.23;100.00
49979;BME280;35869;50.990;6.962;2022-11-20T17:21:40;100199.75;;;6.25;100.00
49979;BME280;35869;50.990;6.962;2022-11-20T17:26:42;100184.22;;;6.27;100.00
49979;BME280;35869;50.990;6.962;2022-11-20T17:31:43;100165.31;;;6.26;100.00
49979;BME280;35869;50.990;6.962;2022-11-20T17:36:44;100147.31;;;6.25;100.00
49979;BME280;35869;50.990;6.962;2022-11-20T17:41:44;100148.84;;;6.30;100.00
49979;BME280;35869;50.990;6.962;2022-11-20T17:46:45;100145.34;;;6.31;100.00
49979;BME280;35869;50.990;6.962;2022-11-20T17:51:45;100122.94;;;6.33;100.00
49979;BME280;35869;50.990;6.962;2022-11-20T17:56:45;100122.06;;;6.33;100.00
49979;BME280;35869;50.990;6.962;2022-11-20T18:01:46;100108.28;;;6.34;100.00
49979;BME280;35869;50.990;6.962;2022-11-20T18:06:46;100087.72;;;6.31;100.00
49979;BME280;35869;50.990;6.962;2022-11-20T18:11:46;100077.63;;;6.25;100.00
49979;BME280;35869;50.990;6.962;2022-11-20T18:16:48;100078.59;;;6.22;100.00
49979;BME280;35869;50.990;6.962;2022-11-20T18:21:49;100086.00;;;6.31;100.00
49979;BME280;35869;50.990;6.962;2022-11-20T18:26:50;100075.44;;;6.37;100.00
49979;BME280;35869;50.990;6.962;2022-11-20T18:31:50;100078.16;;;6.34;100.00
49979;BME280;35869;50.990;6.962;2022-11-20T18:36:50;100075.59;;;6.33;100.00
49979;BME280;35869;50.990;6.962;2022-11-20T18:41:50;100065.28;;;6.33;100.00
49979;BME280;35869;50.990;6.962;2022-11-20T18:46:51;100073.69;;;6.38;100.00
49979;BME280;35869;50.990;6.962;2022-11-20T18:51:51;100066.75;;;6.40;100.00
49979;BME280;35869;50.990;6.962;2022-11-20T18:56:51;100050.44;;;6.39;100.00
49979;BME280;35869;50.990;6.962;2022-11-20T19:01:52;100047.78;;;6.41;100.00
49979;BME280;35869;50.990;6.962;2022-11-20T19:06:52;100033.91;;;6.44;100.00
49979;BME280;35869;50.990;6.962;2022-11-20T19:11:52;100040.72;;;6.46;100.00
49979;BME280;35869;50.990;6.962;2022-11-20T19:16:52;100028.66;;;6.47;100.00
49979;BME280;35869;50.990;6.962;2022-11-20T19:21:53;100019.94;;;6.49;100.00
49979;BME280;35869;50.990;6.962;2022-11-20T19:26:53;100010.34;;;6.53;100.00
49979;BME280;35869;50.990;6.962;2022-11-20T19:31:54;100005.88;;;6.56;100.00
49979;BME280;35869;50.990;6.962;2022-11-20T19:36:54;100003.97;;;6.61;100.00
49979;BME280;35869;50.990;6.962;2022-11-20T19:41:54;100017.22;;;6.74;100.00
49979;BME280;35869;50.990;6.962;2022-11-20T19:46:55;100006.84;;;6.76;100.00
49979;BME280;35869;50.990;6.962;2022-11-20T19:51:55;100000.38;;;6.86;100.00
49979;BME280;35869;50.990;6.962;2022-11-20T19:56:55;99981.44;;;6.87;100.00
49979;BME280;35869;50.990;6.962;2022-11-20T20:01:55;99998.59;;;6.88;100.00
49979;BME280;35869;50.990;6.962;2022-11-20T20:06:55;99995.00;;;6.92;100.00
49979;BME280;35869;50.990;6.962;2022-11-20T20:11:57;99988.59;;;7.01;100.00
49979;BME280;35869;50.990;6.962;2022-11-20T20:16:57;99988.41;;;7.05;100.00
49979;BME280;35869;50.990;6.962;2022-11-20T20:21:57;100002.94;;;7.08;100.00
49979;BME280;35869;50.990;6.962;2022-11-20T20:26:57;100007.75;;;7.17;100.00
49979;BME280;35869;50.990;6.962;2022-11-20T20:31:58;100009.50;;;7.16;100.00
49979;BME280;35869;50.990;6.962;2022-11-20T20:36:58;100010.63;;;7.09;100.00
49979;BME280;35869;50.990;6.962;2022-11-20T20:41:58;100006.94;;;7.15;100.00
49979;BME280;35869;50.990;6.962;2022-11-20T20:46:58;100014.22;;;7.27;100.00
49979;BME280;35869;50.990;6.962;2022-11-20T20:51:59;100010.16;;;7.21;100.00
49979;BME280;35869;50.990;6.962;2022-11-20T20:56:59;100015.88;;;7.28;100.00
49979;BME280;35869;50.990;6.962;2022-11-20T21:01:59;100034.28;;;7.20;100.00
49979;BME280;35869;50.990;6.962;2022-11-20T21:06:59;100033.19;;;7.26;100.00
49979;BME280;35869;50.990;6.962;2022-11-20T21:11:59;100039.09;;;7.30;100.00
49979;BME280;35869;50.990;6.962;2022-11-20T21:17:00;100038.09;;;7.32;100.00
49979;BME280;35869;50.990;6.962;2022-11-20T21:22:00;100046.06;;;7.28;100.00
49979;BME280;35869;50.990;6.962;2022-11-20T21:27:02;100050.84;;;7.37;100.00
49979;BME280;35869;50.990;6.962;2022-11-20T21:32:03;100055.69;;;7.24;100.00
49979;BME280;35869;50.990;6.962;2022-11-20T21:37:03;100057.25;;;7.28;100.00
49979;BME280;35869;50.990;6.962;2022-11-20T21:42:04;100054.34;;;7.36;100.00
49979;BME280;35869;50.990;6.962;2022-11-20T21:47:04;100057.91;;;7.33;100.00
49979;BME280;35869;50.990;6.962;2022-11-20T21:52:04;100052.91;;;7.29;100.00
49979;BME280;35869;50.990;6.962;2022-11-20T21:57:04;100060.00;;;7.24;100.00
49979;BME280;35869;50.990;6.962;2022-11-20T22:02:05;100060.13;;;7.20;100.00
49979;BME280;35869;50.990;6.962;2022-11-20T22:07:05;100074.69;;;7.23;100.00
49979;BME280;35869;50.990;6.962;2022-11-20T22:12:05;100065.28;;;7.20;100.00
49979;BME280;35869;50.990;6.962;2022-11-20T22:17:12;100070.44;;;7.22;100.00
49979;BME280;35869;50.990;6.962;2022-11-20T22:22:12;100066.28;;;7.18;100.00
49979;BME280;35869;50.990;6.962;2022-11-20T22:27:13;100071.09;;;7.27;100.00
49979;BME280;35869;50.990;6.962;2022-11-20T22:32:13;100078.09;;;7.24;100.00
49979;BME280;35869;50.990;6.962;2022-11-20T22:37:13;100076.47;;;7.21;100.00
49979;BME280;35869;50.990;6.962;2022-11-20T22:42:13;100098.13;;;7.18;100.00
49979;BME280;35869;50.990;6.962;2022-11-20T22:47:13;100094.81;;;7.15;100.00
49979;BME280;35869;50.990;6.962;2022-11-20T22:52:14;100096.53;;;7.16;100.00
49979;BME280;35869;50.990;6.962;2022-11-20T22:57:14;100108.28;;;7.23;100.00
49979;BME280;35869;50.990;6.962;2022-11-20T23:02:14;100110.97;;;7.20;100.00
49979;BME280;35869;50.990;6.962;2022-11-20T23:07:14;100117.06;;;7.19;100.00
49979;BME280;35869;50.990;6.962;2022-11-20T23:12:14;100115.31;;;7.19;100.00
49979;BME280;35869;50.990;6.962;2022-11-20T23:17:15;100104.13;;;7.19;100.00
49979;BME280;35869;50.990;6.962;2022-11-20T23:22:15;100126.88;;;7.11;100.00
49979;BME280;35869;50.990;6.962;2022-11-20T23:27:15;100126.72;;;7.14;100.00
49979;BME280;35869;50.990;6.962;2022-11-20T23:32:15;100122.47;;;7.13;100.00
49979;BME280;35869;50.990;6.962;2022-11-20T23:37:16;100118.94;;;7.15;100.00
49979;BME280;35869;50.990;6.962;2022-11-20T23:42:16;100117.81;;;7.21;100.00
49979;BME280;35869;50.990;6.962;2022-11-20T23:47:16;100116.03;;;7.23;100.00
49979;BME280;35869;50.990;6.962;2022-11-20T23:52:16;100118.81;;;7.18;100.00
49979;BME280;35869;50.990;6.962;2022-11-20T23:57:17;100130.13;;;7.16;100.00
